Time;durP1;ratioP1;P1;durP2;ratioP2;P2;SDS_P1;SDS_P2;PMS_P1;PMS_P2;Temp;Humidity;BMP_temperature;BMP_pressure;BME280_temperature;BME280_humidity;BME280_pressure;Samples;Min_cycle;Max_cycle;Signal;HPM_P1;HPM_P2
2024/03/02 00:21:13;;;;;;;;;3.00;1.00;;;;;9.80;100.00;99115.94;6128919;22;46485;-82
2024/03/02 00:23:42;;;;;;;;;1.33;1.00;;;;;9.97;100.00;99163.59;6243109;22;45191;-82
2024/03/02 00:26:11;;;;;;;;;1.33;1.33;;;;;9.80;100.00;99103.53;6217832;22;45352;-82
2024/03/02 00:28:38;;;;;;;;;0.00;0.00;;;;;10.02;100.00;99161.78;6217429;22;45377;-83
2024/03/02 00:31:04;;;;;;;;;6.33;4.67;;;;;9.97;100.00;99161.81;6217830;22;45490;-81
2024/03/02 00:33:49;;;;;;;;;1.00;1.00;;;;;10.15;100.00;99158.09;6215621;22;46923;-81
2024/03/02 00:36:22;;;;;;;;;1.00;1.00;;;;;10.07;100.00;99167.91;6243222;22;45392;-82
2024/03/02 00:38:49;;;;;;;;;2.00;2.00;;;;;9.99;100.00;99165.31;6217017;22;45532;-82
2024/03/02 00:41:23;;;;;;;;;2.00;1.00;;;;;10.16;100.00;99167.84;6217797;22;45381;-82
2024/03/02 00:44:10;;;;;;;;;2.67;1.00;;;;;10.15;100.00;99171.38;6217333;22;46973;-81
2024/03/02 00:46:38;;;;;;;;;1.00;1.00;;;;;10.00;100.00;99171.53;6244925;22;45506;-82
2024/03/02 00:49:05;;;;;;;;;1.00;1.00;;;;;9.94;100.00;99172.47;6217480;22;45393;-81
2024/03/02 00:51:33;;;;;;;;;7.00;1.00;;;;;10.01;100.00;99181.25;6245032;22;45676;-81
2024/03/02 00:54:03;;;;;;;;;2.00;1.00;;;;;9.91;100.00;99164.50;6216771;22;48356;-81
2024/03/02 00:56:30;;;;;;;;;1.00;1.00;;;;;9.99;100.00;99185.69;6242175;22;45521;-81
2024/03/02 00:58:56;;;;;;;;;0.67;0.67;;;;;9.96;100.00;99185.75;6217018;22;45352;-81
2024/03/02 01:01:22;;;;;;;;;1.33;0.00;;;;;9.91;100.00;99185.75;6216812;22;45503;-82
2024/03/02 01:03:48;;;;;;;;;3.00;2.00;;;;;9.90;100.00;99181.34;6244451;22;45789;-81
2024/03/02 01:06:15;;;;;;;;;1.00;1.00;;;;;9.93;100.00;99196.38;6218908;22;45515;-82
2024/03/02 01:08:40;;;;;;;;;2.00;1.00;;;;;9.81;100.00;99189.38;6243881;22;45420;-82
2024/03/02 01:11:06;;;;;;;;;2.00;1.00;;;;;9.80;100.00;99169.94;6245322;22;45311;-81
2024/03/02 01:13:32;;;;;;;;;1.00;1.00;;;;;9.86;100.00;99186.72;6219094;22;46901;-82
2024/03/02 01:15:58;;;;;;;;;1.00;1.00;;;;;9.86;100.00;99186.72;6219472;22;45315;-82
2024/03/02 01:18:24;;;;;;;;;1.00;1.00;;;;;9.81;100.00;99187.59;6243826;22;45296;-82
2024/03/02 01:20:51;;;;;;;;;1.00;1.00;;;;;9.79;100.00;99202.66;6241623;22;45319;-82
2024/03/02 01:23:19;;;;;;;;;2.00;2.00;;;;;9.72;100.00;99179.72;6243833;22;46265;-81
2024/03/02 01:25:45;;;;;;;;;2.67;1.00;;;;;9.82;100.00;99186.72;6244761;22;45466;-81
2024/03/02 01:28:10;;;;;;;;;1.67;1.00;;;;;9.70;100.00;99184.16;6241537;22;45404;-81
2024/03/02 01:30:36;;;;;;;;;2.00;1.00;;;;;9.73;100.00;99189.44;6242579;22;45552;-81
2024/03/02 01:33:02;;;;;;;;;1.00;1.00;;;;;9.75;100.00;99195.63;6241929;22;48126;-80
2024/03/02 01:35:27;;;;;;;;;1.00;1.00;;;;;9.70;100.00;99184.16;6242713;22;45409;-81
2024/03/02 01:37:53;;;;;;;;;1.00;1.00;;;;;9.72;100.00;99194.78;6246073;22;45671;-81
2024/03/02 01:40:18;;;;;;;;;2.00;1.00;;;;;9.72;100.00;99193.00;6245539;22;45710;-81
2024/03/02 01:42:45;;;;;;;;;1.00;1.00;;;;;9.87;100.00;99188.47;6218178;22;47845;-82
2024/03/02 01:45:11;;;;;;;;;3.00;1.00;;;;;9.62;100.00;99156.81;6242762;22;45312;-81
2024/03/02 01:47:36;;;;;;;;;0.67;0.00;;;;;9.76;100.00;99169.97;6217157;22;45404;-81
2024/03/02 01:50:02;;;;;;;;;2.67;1.00;;;;;9.75;100.00;99153.13;6217593;22;45527;-81
2024/03/02 01:52:27;;;;;;;;;1.00;1.00;;;;;9.85;100.00;99161.91;6243713;22;46098;-81
2024/03/02 01:54:53;;;;;;;;;1.67;0.67;;;;;9.78;100.00;99150.47;6242504;22;45463;-81
2024/03/02 01:57:19;;;;;;;;;0.33;0.33;;;;;9.87;100.00;99154.81;6217427;22;45726;-83
2024/03/02 02:02:21;;;;;;;;;2.00;1.00;;;;;9.66;100.00;99139.97;6236067;22;46218;-83
2024/03/02 02:04:47;;;;;;;;;2.00;1.00;;;;;9.76;100.00;99149.59;6223339;22;44876;-82
2024/03/02 02:07:14;;;;;;;;;1.00;1.00;;;;;9.77;100.00;99146.03;6224157;22;45390;-82
2024/03/02 02:09:47;;;;;;;;;1.00;1.00;;;;;9.66;100.00;99137.31;6252910;22;45287;-82
2024/03/02 02:12:13;;;;;;;;;1.00;1.00;;;;;9.70;100.00;99144.34;6224833;22;47480;-83
2024/03/02 02:14:39;;;;;;;;;0.33;0.33;;;;;9.61;100.00;99124.06;6220102;22;45375;-83
2024/03/02 02:17:05;;;;;;;;;2.00;0.33;;;;;9.78;100.00;99146.94;6217484;22;45443;-83
2024/03/02 02:19:30;;;;;;;;;2.67;1.00;;;;;9.75;100.00;99137.22;6246002;22;45319;-81
2024/03/02 02:21:56;;;;;;;;;1.00;1.00;;;;;9.76;100.00;99136.31;6216768;22;48037;-81
2024/03/02 02:24:21;;;;;;;;;2.00;2.00;;;;;9.69;100.00;99136.38;6218283;22;45389;-81
2024/03/02 02:26:47;;;;;;;;;0.00;0.00;;;;;9.66;100.00;99129.34;6219068;22;45394;-81
2024/03/02 02:29:12;;;;;;;;;1.00;1.00;;;;;9.64;100.00;99117.84;6218982;22;45372;-81
2024/03/02 02:31:42;;;;;;;;;2.00;2.00;;;;;9.87;100.00;99130.03;6218272;22;47239;-81
2024/03/02 03:49:33;;;;;;;;;2.00;0.00;;;;;9.27;100.00;99073.03;6166273;22;46408;-82
2024/03/02 03:51:58;;;;;;;;;3.33;0.00;;;;;9.12;100.00;99081.97;6244281;22;45488;-82
2024/03/02 03:54:24;;;;;;;;;2.00;0.00;;;;;9.11;100.00;99084.63;6216309;22;47308;-82
2024/03/02 03:56:49;;;;;;;;;2.00;2.00;;;;;9.11;100.00;99084.63;6216367;22;45277;-82
2024/03/02 03:59:15;;;;;;;;;0.00;0.00;;;;;9.07;100.00;99083.78;6217259;22;45321;-81
2024/03/02 04:01:40;;;;;;;;;1.00;1.00;;;;;9.06;100.00;99075.84;6214909;22;45364;-82
2024/03/02 04:04:05;;;;;;;;;1.00;1.00;;;;;9.04;100.00;99073.19;6215885;22;47080;-82
2024/03/02 04:06:31;;;;;;;;;2.00;1.00;;;;;9.07;100.00;99082.88;6244460;22;45503;-82
2024/03/02 04:08:56;;;;;;;;;1.00;1.00;;;;;9.08;100.00;99069.63;6215998;22;45475;-82
2024/03/02 04:11:21;;;;;;;;;3.67;3.67;;;;;9.05;100.00;99074.06;6244243;22;45402;-81
2024/03/02 04:13:47;;;;;;;;;2.00;1.00;;;;;8.98;100.00;99071.44;6243231;22;45379;-82
2024/03/02 04:16:12;;;;;;;;;0.00;0.00;;;;;8.98;100.00;99066.16;6214956;22;45861;-81
2024/03/02 04:18:39;;;;;;;;;0.67;0.33;;;;;9.01;100.00;99062.63;6215819;22;45425;-81
2024/03/02 04:21:05;;;;;;;;;0.67;0.67;;;;;8.97;100.00;99067.06;6215298;22;45390;-81
2024/03/02 04:23:30;;;;;;;;;1.00;1.00;;;;;8.96;100.00;99056.44;6243149;22;45315;-81
2024/03/02 04:25:55;;;;;;;;;2.33;2.00;;;;;8.94;100.00;99066.19;6216154;22;45280;-82
2024/03/02 04:28:22;;;;;;;;;1.00;1.00;;;;;8.93;100.00;99067.97;6242209;22;45294;-80
2024/03/02 04:30:48;;;;;;;;;0.00;0.00;;;;;8.93;100.00;99067.09;6242285;22;45339;-81
2024/03/02 04:33:13;;;;;;;;;1.67;0.67;;;;;8.77;100.00;99039.78;6215535;22;46729;-81
2024/03/02 04:35:38;;;;;;;;;0.33;0.33;;;;;8.88;100.00;99067.09;6243129;22;45395;-81
2024/03/02 04:38:04;;;;;;;;;0.67;0.67;;;;;8.86;100.00;99060.91;6216647;22;45452;-81
2024/03/02 04:40:29;;;;;;;;;1.00;0.00;;;;;8.89;100.00;99057.41;6216601;22;45421;-81
2024/03/02 04:42:55;;;;;;;;;2.33;2.00;;;;;8.95;100.00;99073.25;6215533;22;47383;-81
2024/03/02 04:45:20;;;;;;;;;0.00;0.00;;;;;8.94;100.00;99069.72;6243569;22;45304;-81
2024/03/02 04:47:52;;;;;;;;;2.00;0.00;;;;;9.10;100.00;99089.06;6243121;22;45730;-82
2024/03/02 04:50:17;;;;;;;;;1.67;1.00;;;;;8.89;100.00;99079.47;6214988;22;45842;-82
2024/03/02 04:52:42;;;;;;;;;2.33;1.00;;;;;8.91;100.00;99075.06;6214637;22;48025;-81
2024/03/02 04:57:54;;;;;;;;;0.00;0.00;;;;;8.87;100.00;99065.34;6243456;22;45383;-81
2024/03/02 05:00:20;;;;;;;;;0.00;0.00;;;;;8.84;100.00;99061.84;6215379;22;45451;-81
2024/03/02 05:02:46;;;;;;;;;0.67;0.67;;;;;8.80;100.00;99058.31;6214846;22;48103;-82
2024/03/02 05:05:11;;;;;;;;;0.00;0.00;;;;;8.80;100.00;99058.31;6241579;22;45352;-82
2024/03/02 05:07:36;;;;;;;;;0.33;0.00;;;;;8.85;100.00;99056.53;6242254;22;45521;-81
2024/03/02 05:10:05;;;;;;;;;2.00;2.00;;;;;8.87;100.00;99060.06;6216159;22;45452;-82
2024/03/02 05:13:17;;;;;;;;;1.00;1.00;;;;;8.84;100.00;99043.28;6215770;22;47044;-82
2024/03/02 05:15:16;;;;;;;;;1.00;1.00;;;;;8.82;100.00;99046.81;6221690;22;45468;-83
2024/03/02 05:17:45;;;;;;;;;1.33;1.33;;;;;8.87;100.00;99043.28;6215142;22;45345;-81
2024/03/02 05:20:11;;;;;;;;;0.00;0.00;;;;;8.79;100.00;99036.22;6217752;22;45285;-82
2024/03/02 05:22:37;;;;;;;;;2.33;0.00;;;;;8.87;100.00;99027.38;6247152;22;46208;-82
2024/03/02 05:25:03;;;;;;;;;0.00;0.00;;;;;8.78;100.00;99023.84;6218085;22;45418;-82
2024/03/02 05:27:29;;;;;;;;;2.00;1.00;;;;;8.82;100.00;99041.50;6245657;22;45378;-81
2024/03/02 05:29:54;;;;;;;;;1.00;1.00;;;;;8.85;100.00;99040.63;6244439;22;45444;-81
2024/03/02 05:32:20;;;;;;;;;0.33;0.33;;;;;8.86;100.00;99045.03;6241962;22;46273;-81
2024/03/02 05:34:45;;;;;;;;;0.00;0.00;;;;;8.81;100.00;99033.59;6243237;22;45339;-81
2024/03/02 05:37:11;;;;;;;;;2.00;0.67;;;;;8.87;100.00;99040.63;6243498;22;45801;-81
2024/03/02 05:39:36;;;;;;;;;0.33;0.00;;;;;8.88;100.00;99037.94;6215981;22;45313;-81
2024/03/02 05:42:03;;;;;;;;;1.00;1.00;;;;;8.91;100.00;99043.22;6243625;22;45831;-80
2024/03/02 05:44:28;;;;;;;;;1.67;0.67;;;;;8.93;100.00;99043.22;6242602;22;45278;-82
2024/03/02 05:46:53;;;;;;;;;0.67;0.67;;;;;8.90;100.00;99033.50;6216795;22;45448;-81
2024/03/02 05:49:19;;;;;;;;;1.00;1.00;;;;;8.91;100.00;99032.63;6215672;22;45438;-82
2024/03/02 05:51:44;;;;;;;;;3.00;2.00;;;;;8.96;100.00;99038.75;6217986;22;46926;-81
2024/03/02 05:54:09;;;;;;;;;3.00;1.00;;;;;8.96;100.00;99027.28;6219438;22;45522;-82
2024/03/02 05:56:35;;;;;;;;;4.33;2.33;;;;;9.02;100.00;99037.84;6244785;22;47726;-81
2024/03/02 05:59:34;;;;;;;;;2.00;2.00;;;;;8.95;100.00;99030.84;6224290;22;45408;-83
2024/03/02 06:01:52;;;;;;;;;2.00;2.00;;;;;9.01;100.00;99025.50;6240188;22;45923;-82
2024/03/02 06:04:18;;;;;;;;;2.67;1.00;;;;;9.10;100.00;99036.03;6246240;22;45319;-82
2024/03/02 06:06:44;;;;;;;;;2.00;1.67;;;;;9.13;100.00;99036.00;6219260;22;45755;-82
2024/03/02 06:09:13;;;;;;;;;1.33;1.00;;;;;9.09;100.00;99036.03;6218038;22;45349;-82
2024/03/02 06:11:40;;;;;;;;;0.67;0.67;;;;;9.13;100.00;99030.72;6219400;22;47163;-82
2024/03/02 06:14:08;;;;;;;;;2.00;1.00;;;;;9.17;100.00;99018.28;6245703;22;45313;-82
2024/03/02 06:16:34;;;;;;;;;4.33;0.67;;;;;9.20;100.00;99036.84;6218321;22;45986;-81
2024/03/02 07:35:45;;;;;;;;;1.67;1.33;;;;;10.04;100.00;98999.72;6206669;22;45622;-83
2024/03/02 07:38:11;;;;;;;;;2.00;1.00;;;;;9.99;100.00;99008.63;6216371;22;45417;-83
2024/03/02 07:40:36;;;;;;;;;1.00;1.00;;;;;10.12;100.00;99012.03;6215927;22;45302;-83
2024/03/02 07:43:02;;;;;;;;;6.00;2.00;;;;;10.23;100.00;99011.91;6217082;22;47092;-83
2024/03/02 07:45:27;;;;;;;;;1.33;1.33;;;;;10.29;100.00;99001.19;6216747;22;45276;-83
2024/03/02 07:47:53;;;;;;;;;2.67;1.00;;;;;10.46;100.00;99013.41;6246134;22;45360;-84
2024/03/02 07:50:19;;;;;;;;;2.33;2.33;;;;;10.58;100.00;99008.84;6244363;22;45542;-84
2024/03/02 07:52:45;;;;;;;;;2.00;2.00;;;;;10.72;100.00;99000.63;6216223;22;48445;-83
2024/03/02 07:55:10;;;;;;;;;2.00;1.00;;;;;10.68;100.00;98963.50;6244171;22;45430;-82
2024/03/02 08:01:00;;;;;;;;;1.00;1.00;;;;;11.01;100.00;98988.69;6245484;22;45352;-83
2024/03/02 08:03:25;;;;;;;;;5.00;1.33;;;;;11.01;100.00;98996.69;6219231;22;47001;-82
2024/03/02 08:05:51;;;;;;;;;1.33;1.00;;;;;11.05;100.00;98994.81;6217947;22;45562;-83
2024/03/02 08:08:19;;;;;;;;;2.33;2.00;;;;;11.20;100.00;99005.22;6219415;22;45431;-83
2024/03/02 08:10:45;;;;;;;;;1.33;1.33;;;;;11.01;100.00;99002.88;6248732;22;45314;-83
2024/03/02 08:13:10;;;;;;;;;1.00;1.00;;;;;11.01;100.00;98997.56;6218416;22;45762;-82
2024/03/02 08:15:36;;;;;;;;;2.00;2.00;;;;;11.04;100.00;99001.94;6218325;22;45438;-83
2024/03/02 08:18:01;;;;;;;;;2.33;1.00;;;;;11.04;100.00;98985.97;6245416;22;45250;-82
2024/03/02 08:20:27;;;;;;;;;1.00;1.00;;;;;11.09;100.00;98988.56;6216416;22;45571;-83
2024/03/02 08:22:54;;;;;;;;;0.33;0.33;;;;;11.14;100.00;99002.69;6243560;22;45842;-83
2024/03/02 08:25:20;;;;;;;;;2.33;2.00;;;;;11.15;100.00;99001.75;6243730;22;45403;-83
2024/03/02 08:27:46;;;;;;;;;2.00;2.00;;;;;11.14;100.00;99000.88;6215963;22;45340;-82
2024/03/02 08:30:12;;;;;;;;;1.33;1.33;;;;;11.20;100.00;99008.75;6241068;22;45527;-83
2024/03/02 08:32:37;;;;;;;;;2.00;1.00;;;;;11.16;100.00;99006.19;6241521;22;47768;-83
2024/03/02 08:35:03;;;;;;;;;3.00;2.00;;;;;11.24;100.00;98993.63;6239730;22;45533;-83
2024/03/02 08:37:29;;;;;;;;;2.33;2.00;;;;;11.20;100.00;99002.56;6215331;22;45464;-82
2024/03/02 08:39:55;;;;;;;;;3.00;3.00;;;;;11.13;100.00;99000.91;6245510;22;45389;-84
2024/03/02 08:42:23;;;;;;;;;1.67;1.67;;;;;11.29;100.00;98993.53;6217862;22;47192;-83
2024/03/02 08:44:49;;;;;;;;;2.33;2.00;;;;;11.20;100.00;98999.91;6244072;22;45267;-83
2024/03/02 08:47:15;;;;;;;;;1.67;1.67;;;;;11.20;100.00;99005.22;6217774;22;45389;-84
2024/03/02 08:53:03;;;;;;;;;2.00;2.00;;;;;11.37;100.00;99005.84;6247762;22;45333;-83
2024/03/02 08:55:29;;;;;;;;;3.00;3.00;;;;;11.20;100.00;99000.78;6247533;22;45594;-84
2024/03/02 08:58:02;;;;;;;;;2.00;1.00;;;;;11.34;100.00;99007.66;6245323;22;45381;-83
2024/03/02 09:00:27;;;;;;;;;1.00;1.00;;;;;11.35;100.00;98997.00;6218870;22;45294;-83
2024/03/02 09:02:53;;;;;;;;;1.00;1.00;;;;;11.43;100.00;99002.16;6245855;22;44968;-84
2024/03/02 09:05:18;;;;;;;;;1.00;1.00;;;;;11.40;100.00;98996.91;6215629;22;45356;-83
2024/03/02 09:07:43;;;;;;;;;3.33;1.67;;;;;11.44;100.00;98992.44;6244535;22;45851;-83
2024/03/02 09:10:09;;;;;;;;;2.00;2.00;;;;;11.48;100.00;98997.66;6247138;22;45502;-83
2024/03/02 09:12:36;;;;;;;;;1.67;1.67;;;;;11.45;100.00;98999.50;6218157;22;45460;-83
2024/03/02 09:15:05;;;;;;;;;3.00;1.00;;;;;11.43;100.00;98994.19;6246371;22;45387;-82
2024/03/02 09:17:31;;;;;;;;;1.00;1.00;;;;;11.43;100.00;98998.63;6219140;22;45362;-83
2024/03/02 09:23:18;;;;;;;;;2.33;1.33;;;;;11.41;100.00;98988.00;6243629;22;45809;-83
2024/03/02 09:25:44;;;;;;;;;1.00;1.00;;;;;11.49;100.00;98987.88;6245390;22;48758;-83
2024/03/02 09:28:10;;;;;;;;;1.00;1.00;;;;;11.55;100.00;98988.66;6244030;22;45360;-83
2024/03/02 09:30:35;;;;;;;;;4.00;2.00;;;;;11.56;100.00;98995.72;6214996;22;45445;-83
2024/03/02 09:33:01;;;;;;;;;2.00;0.00;;;;;11.68;100.00;98993.78;6214936;22;48333;-82
2024/03/02 09:35:40;;;;;;;;;0.80;0.80;;;;;12.00;100.00;98990.53;5866195;22;8059208;-83
2024/03/02 09:38:05;;;;;;;;;1.25;1.25;;;;;11.93;100.00;98988.88;6243032;22;45400;-82
2024/03/02 09:40:30;;;;;;;;;2.75;1.75;;;;;12.00;100.00;98987.84;6215554;22;45792;-83
2024/03/02 09:42:57;;;;;;;;;1.67;1.00;;;;;11.98;100.00;98981.69;6243939;22;45331;-83
2024/03/02 09:45:24;;;;;;;;;3.00;1.00;;;;;12.09;100.00;98979.66;6244484;22;45474;-83
2024/03/02 09:47:50;;;;;;;;;2.00;1.00;;;;;12.01;100.00;98965.63;6243443;22;45396;-83
2024/03/02 09:50:17;;;;;;;;;4.00;3.33;;;;;12.00;100.00;98958.53;6246977;22;45736;-83
2024/03/02 09:52:43;;;;;;;;;3.00;3.00;;;;;12.08;100.00;98964.59;6216814;22;45422;-83
2024/03/02 09:55:19;;;;;;;;;;;;;;;;;;;;;
2024/03/02 09:57:48;;;;;;;;;3.67;3.00;;;;;12.26;100.00;98942.00;6242385;22;71494;-83
2024/03/02 10:00:14;;;;;;;;;2.00;2.00;;;;;12.40;100.00;98957.69;6248023;22;45371;-83
2024/03/02 10:02:43;;;;;;;;;4.33;3.33;;;;;12.49;100.00;98941.50;6245659;22;45444;-83
2024/03/02 10:05:12;;;;;;;;;1.00;1.00;;;;;12.84;100.00;98938.91;6216333;22;47023;-82
2024/03/02 10:07:37;;;;;;;;;3.00;1.33;;;;;12.76;100.00;98944.41;6216034;22;45669;-84
2024/03/02 10:10:14;;;;;;;;;1.00;1.00;;;;;12.83;100.00;98929.16;6216245;22;45462;-82
2024/03/02 10:12:39;;;;;;;;;1.00;1.00;;;;;12.71;100.00;98936.53;6215977;22;45557;-83
2024/03/02 10:25:32;;;;;;;;;2.00;1.00;;;;;12.61;100.00;98921.66;6205743;22;46094;-83
2024/03/02 10:27:59;;;;;;;;;1.00;1.00;;;;;12.46;100.00;98903.34;6244603;22;45763;-83
2024/03/02 10:30:25;;;;;;;;;2.33;2.33;;;;;12.52;100.00;98930.78;6218582;22;45343;-83
2024/03/02 10:32:52;;;;;;;;;2.00;2.00;;;;;12.48;100.00;98922.84;6218262;22;45584;-82
2024/03/02 10:35:19;;;;;;;;;3.00;3.00;;;;;12.41;100.00;98922.13;6217652;22;47067;-83
2024/03/02 10:37:44;;;;;;;;;1.00;1.00;;;;;12.40;100.00;98915.94;6218210;22;45743;-83
2024/03/02 10:40:11;;;;;;;;;6.00;3.00;;;;;12.49;100.00;98921.97;6216510;22;45484;-84
2024/03/02 10:42:38;;;;;;;;;1.67;1.67;;;;;12.49;100.00;98914.81;6217548;22;45447;-84
2024/03/02 10:45:06;;;;;;;;;2.33;2.33;;;;;12.52;100.00;98905.88;6246298;22;45411;-84
2024/03/02 10:47:35;;;;;;;;;4.00;2.00;;;;;12.57;100.00;98912.00;6217101;22;45370;-83
2024/03/02 10:50:01;;;;;;;;;2.00;2.00;;;;;12.52;100.00;98903.19;6215674;22;45534;-83
2024/03/02 10:52:26;;;;;;;;;2.00;2.00;;;;;12.60;100.00;98910.13;6214454;22;45283;-83
2024/03/02 10:54:52;;;;;;;;;2.00;2.00;;;;;12.82;100.00;98909.59;6215278;22;46980;-83
2024/03/02 10:57:23;;;;;;;;;2.67;2.67;;;;;13.06;100.00;98907.25;6216143;22;45336;-83
2024/03/02 10:59:58;;;;;;;;;3.00;3.00;;;;;13.15;100.00;98921.22;6244222;22;45398;-83
2024/03/02 11:02:25;;;;;;;;;1.00;1.00;;;;;12.96;100.00;98912.78;6216285;22;45451;-82
2024/03/02 11:04:55;;;;;;;;;2.00;2.00;;;;;13.15;100.00;98931.03;6216566;22;47440;-83
2024/03/02 11:07:22;;;;;;;;;2.67;2.67;;;;;12.93;100.00;98915.56;6242720;22;45414;-83
2024/03/02 11:09:59;;;;;;;;;2.33;2.00;;;;;13.04;100.00;98917.06;6243529;22;45375;-82
2024/03/02 11:12:29;;;;;;;;;2.00;2.00;;;;;13.07;100.00;98927.66;6215909;22;45339;-83
2024/03/02 11:14:56;;;;;;;;;3.00;3.00;;;;;12.96;100.00;98918.13;6215980;22;48101;-83
2024/03/02 11:17:22;;;;;;;;;3.33;2.00;;;;;13.20;100.00;98913.09;6244122;22;45478;-82
2024/03/02 11:19:49;;;;;;;;;1.00;1.00;;;;;13.46;100.00;98906.22;6246208;22;45430;-82
2024/03/02 11:22:16;;;;;;;;;0.67;0.67;;;;;13.62;100.00;98910.22;6215701;22;45406;-83
2024/03/02 11:24:52;;;;;;;;;1.25;0.50;;;;;13.86;100.00;98908.66;6214148;22;47759;-83
2024/03/02 11:27:45;;;;;;;;;1.75;1.75;;;;;13.97;100.00;98913.69;6243716;22;45402;-83
2024/03/02 11:30:37;;;;;;;;;4.33;4.33;;;;;14.08;100.00;98900.00;6245869;22;45260;-82
2024/03/02 11:33:10;;;;;;;;;2.00;2.00;;;;;14.21;100.00;98907.59;6218931;22;45354;-82
2024/03/02 11:35:40;;;;;;;;;1.33;0.33;;;;;14.09;100.00;98905.31;6245028;22;45377;-83
2024/03/02 11:38:06;;;;;;;;;1.00;1.00;;;;;14.19;100.00;98906.78;6217253;22;45393;-84
2024/03/02 11:40:32;;;;;;;;;0.25;0.25;;;;;14.11;100.00;98886.56;6218386;22;45350;-83
2024/03/02 11:43:00;;;;;;;;;1.25;1.00;;;;;14.22;100.00;98895.13;6219745;22;45621;-83
2024/03/02 11:45:27;;;;;;;;;1.00;1.00;;;;;14.16;100.00;98889.97;6246238;22;45497;-83
2024/03/02 11:47:57;;;;;;;;;0.00;0.00;;;;;14.40;100.00;98893.66;6241275;22;45724;-84
2024/03/02 11:50:40;;;;;;;;;1.00;1.00;;;;;14.51;100.00;98886.19;6216254;22;45820;-83
2024/03/02 11:53:08;;;;;;;;;1.00;1.00;;;;;14.55;100.00;98877.16;6217433;22;45299;-83
2024/03/02 11:55:36;;;;;;;;;0.25;0.00;;;;;14.66;100.00;98875.97;6192949;22;47329;-83
2024/03/02 11:58:02;;;;;;;;;2.25;0.75;;;;;14.68;100.00;98888.34;6220025;22;45460;-83
2024/03/02 12:00:27;;;;;;;;;0.33;0.33;;;;;14.61;100.00;98876.13;6218459;22;45441;-84
2024/03/02 12:03:07;;;;;;;;;1.00;1.00;;;;;14.88;100.00;98873.44;6218118;22;45521;-83
2024/03/02 12:05:33;;;;;;;;;0.00;0.00;;;;;14.79;100.00;98874.63;6244358;22;45208;-83
2024/03/02 12:08:08;;;;;;;;;0.00;0.00;;;;;15.17;100.00;98872.47;6242380;22;45646;-83
2024/03/02 12:10:35;;;;;;;;;0.25;0.25;;;;;15.11;100.00;98878.91;6216012;22;45513;-83
2024/03/02 12:13:07;;;;;;;;;1.75;1.75;;;;;15.23;100.00;98885.66;6215436;22;45367;-84
2024/03/02 12:15:38;;;;;;;;;1.00;1.00;;;;;14.98;100.00;98861.50;6241955;22;46123;-84
2024/03/02 12:18:04;;;;;;;;;2.00;2.00;;;;;14.77;100.00;98863.97;6243785;22;45685;-83
2024/03/02 12:20:31;;;;;;;;;0.00;0.00;;;;;14.69;100.00;98863.34;6218378;22;45380;-83
2024/03/02 12:23:02;;;;;;;;;0.00;0.00;;;;;14.75;100.00;98851.59;6245251;22;45308;-84
2024/03/02 12:25:27;;;;;;;;;0.00;0.00;;;;;14.55;100.00;98871.78;6217218;22;47676;-84
2024/03/02 12:27:58;;;;;;;;;1.50;1.00;;;;;14.67;100.00;98880.41;6218490;22;46086;-84
2024/03/02 12:30:27;;;;;;;;;1.00;1.00;;;;;14.47;100.00;98873.84;6218024;22;45334;-84
2024/03/02 12:32:52;;;;;;;;;0.00;0.00;;;;;14.41;100.00;98868.69;6246851;22;45436;-82
2024/03/02 12:35:18;;;;;;;;;0.00;0.00;;;;;14.35;100.00;98869.75;6218198;22;46977;-84
2024/03/02 12:37:51;;;;;;;;;2.00;2.00;;;;;14.25;100.00;98873.63;6247063;22;45780;-83
2024/03/02 12:40:18;;;;;;;;;0.00;0.00;;;;;14.05;100.00;98863.56;6217618;22;45431;-84
2024/03/02 12:42:48;;;;;;;;;2.25;1.00;;;;;14.05;100.00;98863.56;6246580;22;45704;-83
2024/03/02 12:45:14;;;;;;;;;0.00;0.00;;;;;14.06;100.00;98859.97;6216777;22;47221;-84
2024/03/02 12:47:41;;;;;;;;;0.25;0.25;;;;;14.11;100.00;98854.47;6244994;22;45483;-82
2024/03/02 12:50:07;;;;;;;;;2.00;2.00;;;;;14.18;100.00;98862.25;6216187;22;45300;-83
2024/03/02 12:52:34;;;;;;;;;1.75;1.75;;;;;14.15;100.00;98854.31;6215815;22;45501;-83
2024/03/02 12:55:03;;;;;;;;;5.33;3.00;;;;;14.24;100.00;98847.84;6214885;22;47076;-83
2024/03/02 12:57:29;;;;;;;;;2.33;1.00;;;;;14.32;100.00;98835.09;6214762;22;45292;-83
2024/03/02 13:00:00;;;;;;;;;3.00;1.00;;;;;14.63;100.00;98852.00;6245699;22;45495;-83
2024/03/02 13:02:30;;;;;;;;;1.00;1.00;;;;;14.57;100.00;98843.22;6218399;22;45780;-83
2024/03/02 13:04:58;;;;;;;;;1.67;1.67;;;;;14.48;100.00;98842.63;6216210;22;48140;-83
2024/03/02 13:07:27;;;;;;;;;2.00;2.00;;;;;14.50;100.00;98847.00;6216803;22;45449;-83
2024/03/02 13:09:55;;;;;;;;;1.00;1.00;;;;;14.36;100.00;98838.53;6221299;22;45654;-84
2024/03/02 13:12:21;;;;;;;;;1.00;1.00;;;;;14.13;100.00;98837.47;6217962;22;45474;-84
2024/03/02 13:14:51;;;;;;;;;1.00;1.00;;;;;14.33;100.00;98860.91;6242519;22;45487;-83
2024/03/02 13:17:18;;;;;;;;;1.33;1.00;;;;;14.23;100.00;98850.56;6212778;22;45420;-83
2024/03/02 13:19:56;;;;;;;;;0.00;0.00;;;;;14.24;100.00;98844.25;6241348;22;45402;-84
2024/03/02 13:22:22;;;;;;;;;2.00;2.00;;;;;14.04;100.00;98837.75;6213240;22;45534;-84
2024/03/02 13:24:48;;;;;;;;;1.00;1.00;;;;;13.99;100.00;98839.69;6241385;22;45518;-84
2024/03/02 13:27:14;;;;;;;;;1.00;1.00;;;;;13.98;100.00;98840.63;6215618;22;45451;-83
2024/03/02 13:29:39;;;;;;;;;4.00;3.00;;;;;14.01;100.00;98851.19;6214869;22;44887;-83
2024/03/02 13:32:05;;;;;;;;;4.00;2.00;;;;;13.96;100.00;98845.13;6243521;22;45072;-84
2024/03/02 13:34:30;;;;;;;;;4.00;2.33;;;;;13.92;100.00;98840.81;6244539;22;45457;-83
2024/03/02 13:36:56;;;;;;;;;2.00;2.00;;;;;13.93;100.00;98851.44;6243247;22;45805;-83
2024/03/02 13:39:21;;;;;;;;;1.00;1.00;;;;;13.75;100.00;98807.44;6221800;22;45335;-83
2024/03/02 13:41:52;;;;;;;;;1.00;1.00;;;;;13.95;100.00;98830.88;6218090;22;45201;-83
2024/03/02 13:44:21;;;;;;;;;1.00;1.00;;;;;13.90;100.00;98829.28;6243431;22;45710;-83
2024/03/02 13:46:48;;;;;;;;;1.00;1.00;;;;;13.83;100.00;98833.91;6245199;22;45273;-83
2024/03/02 13:49:13;;;;;;;;;1.00;1.00;;;;;13.86;100.00;98825.81;6217793;22;45403;-83
2024/03/02 13:51:39;;;;;;;;;0.25;0.25;;;;;13.93;100.00;98834.53;6217183;22;45474;-83
2024/03/02 13:54:05;;;;;;;;;1.25;1.25;;;;;13.94;100.00;98825.59;6216859;22;56533;-83
2024/03/02 13:56:32;;;;;;;;;0.50;0.50;;;;;13.86;100.00;98820.47;6217830;22;45522;-84
2024/03/02 13:58:57;;;;;;;;;1.67;1.67;;;;;13.92;100.00;98822.09;6219330;22;45389;-84
2024/03/02 14:01:22;;;;;;;;;1.50;1.00;;;;;13.93;100.00;98813.16;6246846;22;45407;-84
2024/03/02 14:03:48;;;;;;;;;2.50;2.00;;;;;13.94;100.00;98814.91;6193206;22;46780;-82
2024/03/02 14:06:13;;;;;;;;;1.00;1.00;;;;;13.93;100.00;98816.69;6220161;22;45459;-82
2024/03/02 14:08:39;;;;;;;;;2.00;2.00;;;;;13.94;100.00;98812.25;6218768;22;45360;-83
2024/03/02 14:11:05;;;;;;;;;0.50;0.50;;;;;13.88;100.00;98817.78;6245142;22;45328;-83
2024/03/02 14:13:30;;;;;;;;;2.75;1.25;;;;;13.84;100.00;98813.44;6244789;22;45792;-82
2024/03/02 14:15:55;;;;;;;;;4.00;2.25;;;;;13.90;100.00;98813.25;6244347;22;45343;-83
2024/03/02 14:18:21;;;;;;;;;1.00;1.00;;;;;13.90;100.00;98797.22;6217396;22;45573;-83
2024/03/02 14:20:52;;;;;;;;;2.00;2.00;;;;;13.90;100.00;98798.09;6245587;22;45520;-83
2024/03/02 14:23:19;;;;;;;;;2.00;2.00;;;;;13.96;100.00;98799.69;6245620;22;45740;-83
2024/03/02 14:25:45;;;;;;;;;2.50;1.25;;;;;13.94;100.00;98798.88;6215429;22;45747;-84
2024/03/02 14:28:11;;;;;;;;;1.00;1.00;;;;;13.88;100.00;98788.38;6216229;22;45433;-83
2024/03/02 14:30:39;;;;;;;;;3.00;3.00;;;;;13.98;100.00;98779.16;6216560;22;45353;-83
2024/03/02 14:33:04;;;;;;;;;1.25;1.25;;;;;13.80;100.00;98784.13;6244365;22;45402;-83
2024/03/02 14:35:30;;;;;;;;;1.50;1.50;;;;;13.69;100.00;98780.03;6245131;22;45770;-83
2024/03/02 14:37:57;;;;;;;;;1.00;1.00;;;;;13.74;100.00;98783.44;6245332;22;45379;-83
2024/03/02 14:40:26;;;;;;;;;3.00;1.75;;;;;13.58;100.00;98781.22;6245469;22;45383;-83
2024/03/02 14:42:51;;;;;;;;;3.50;2.50;;;;;13.67;100.00;98781.88;6217956;22;46186;-82
2024/03/02 14:45:17;;;;;;;;;3.00;3.00;;;;;13.73;100.00;98790.56;6219346;22;45666;-82
2024/03/02 14:47:44;;;;;;;;;4.75;4.00;;;;;13.89;100.00;98779.44;6216773;22;45580;-83